createdAt,value
2019-05-02T00:00:33.345Z,52.70
2019-05-02T00:03:04.388Z,45.97
2019-05-02T00:05:34.314Z,50.80
2019-05-02T00:08:04.127Z,54.33
2019-05-02T00:10:34.534Z,46.60
2019-05-02T00:13:04.720Z,52.47
2019-05-02T00:15:38.221Z,53.67
2019-05-02T00:18:05.776Z,54.57
2019-05-02T00:20:35.332Z,50.57
2019-05-02T00:23:04.983Z,52.80
2019-05-02T00:25:34.501Z,47.00
2019-05-02T00:28:07.871Z,54.43
2019-05-02T00:30:36.124Z,53.30
2019-05-02T00:33:05.791Z,50.03
2019-05-02T00:35:35.279Z,58.00
2019-05-02T00:38:05.045Z,50.97
2019-05-02T00:40:34.693Z,47.93
2019-05-02T00:43:05.468Z,51.60
2019-05-02T00:45:35.137Z,58.67
2019-05-02T00:48:06.585Z,51.10
2019-05-02T00:50:40.749Z,53.97
2019-05-02T00:53:13.700Z,57.80
2019-05-02T00:55:43.278Z,50.20
2019-05-02T00:58:12.780Z,49.67
2019-05-02T01:01:00.218Z,51.83
2019-05-02T01:03:32.032Z,56.63
2019-05-02T01:06:01.746Z,52.83
2019-05-02T01:08:35.725Z,52.00
2019-05-02T01:11:02.644Z,52.20
2019-05-02T01:13:32.137Z,55.47
2019-05-02T01:16:02.654Z,60.83
2019-05-02T01:18:32.221Z,57.77
2019-05-02T01:21:02.774Z,55.23
2019-05-02T01:23:33.005Z,51.70
2019-05-02T01:26:02.620Z,54.37
2019-05-02T01:28:49.164Z,49.90
2019-05-02T01:31:40.187Z,48.77
2019-05-02T01:34:18.009Z,53.03
2019-05-02T01:36:49.751Z,49.03
2019-05-02T01:39:19.285Z,49.53
2019-05-02T01:41:50.032Z,53.10
2019-05-02T01:44:19.607Z,49.50
2019-05-02T01:46:49.327Z,46.60
2019-05-02T01:49:21.723Z,49.37
2019-05-02T01:51:50.094Z,44.13
2019-05-02T01:54:19.640Z,48.57
2019-05-02T01:56:49.161Z,54.47
2019-05-02T01:59:18.738Z,56.20
2019-05-02T02:01:48.348Z,54.10
2019-05-02T02:04:20.995Z,47.93
2019-05-02T02:06:50.139Z,55.03
2019-05-02T02:09:19.681Z,48.40
2019-05-02T02:11:49.265Z,50.70
2019-05-02T02:14:20.862Z,53.73
2019-05-02T02:16:50.497Z,54.93
2019-05-02T02:19:34.694Z,49.03
2019-05-02T02:22:12.572Z,55.80
2019-05-02T02:24:47.221Z,47.23
2019-05-02T02:27:20.000Z,51.97
2019-05-02T02:29:48.025Z,53.43
2019-05-02T02:32:19.997Z,51.10
2019-05-02T02:34:50.717Z,53.07
2019-05-02T02:37:20.226Z,51.70
2019-05-02T02:39:54.277Z,53.67
2019-05-02T02:42:24.885Z,48.43
2019-05-02T02:45:01.359Z,52.77
2019-05-02T02:47:31.035Z,45.57
2019-05-02T02:50:02.714Z,53.33
2019-05-02T02:52:37.985Z,50.03
2019-05-02T02:55:04.171Z,56.33
2019-05-02T02:57:33.743Z,49.53
2019-05-02T03:00:07.657Z,59.50
2019-05-02T03:02:35.569Z,62.10
2019-05-02T03:05:06.089Z,58.93
2019-05-02T03:07:35.709Z,61.70
2019-05-02T03:10:06.558Z,66.33
2019-05-02T03:12:50.800Z,61.50
2019-05-02T03:15:28.125Z,55.67
2019-05-02T03:17:59.973Z,65.40
2019-05-02T03:20:25.539Z,62.77
2019-05-02T03:22:55.203Z,64.23
2019-05-02T03:25:39.245Z,70.13
2019-05-02T03:27:56.440Z,59.57
2019-05-02T03:30:35.318Z,55.20
2019-05-02T03:33:06.070Z,56.40
2019-05-02T03:35:42.983Z,56.40
2019-05-02T03:38:02.268Z,58.80
2019-05-02T03:40:38.473Z,53.83
2019-05-02T03:43:03.514Z,60.00
2019-05-02T03:45:40.029Z,57.87
2019-05-02T03:48:05.694Z,59.53
2019-05-02T03:50:35.568Z,63.43
2019-05-02T03:53:05.505Z,59.33
2019-05-02T03:55:35.210Z,64.03
2019-05-02T03:58:13.349Z,64.97
2019-05-02T04:00:36.125Z,59.40
2019-05-02T04:03:05.789Z,53.47
2019-05-02T04:05:40.500Z,66.20
2019-05-02T04:08:06.658Z,64.83
2019-05-02T04:10:52.723Z,71.17
2019-05-02T04:13:19.670Z,62.97
2019-05-02T04:15:49.554Z,65.30
2019-05-02T04:18:20.591Z,70.33
2019-05-02T04:20:51.957Z,73.60
2019-05-02T04:23:27.683Z,66.63
2019-05-02T04:25:55.676Z,68.03
2019-05-02T04:28:25.165Z,60.13
2019-05-02T04:30:54.741Z,66.83
2019-05-02T04:33:29.252Z,57.27
2019-05-02T04:35:59.301Z,66.07
2019-05-02T04:38:39.150Z,60.97
2019-05-02T04:40:59.185Z,57.47
2019-05-02T04:43:28.925Z,56.37
2019-05-02T04:46:00.218Z,55.67
2019-05-02T04:48:34.663Z,57.10
2019-05-02T04:51:12.555Z,55.03
2019-05-02T04:53:41.088Z,62.50
2019-05-02T04:56:07.073Z,61.83
2019-05-02T04:58:37.193Z,56.27
2019-05-02T05:01:06.207Z,66.57
2019-05-02T05:03:37.687Z,89.17
2019-05-02T05:06:12.276Z,71.80
2019-05-02T05:08:41.713Z,91.90
2019-05-02T05:11:13.926Z,86.93
2019-05-02T05:13:41.963Z,87.00
2019-05-02T05:16:15.525Z,76.73
2019-05-02T05:18:43.910Z,75.57
2019-05-02T05:21:14.142Z,77.60
2019-05-02T05:23:47.177Z,92.57
2019-05-02T05:26:17.479Z,87.97
2019-05-02T05:28:47.621Z,95.40
2019-05-02T05:31:24.066Z,82.63
2019-05-02T05:33:48.544Z,148.57
2019-05-02T05:36:19.947Z,122.93
2019-05-02T05:38:49.369Z,109.70
2019-05-02T05:41:22.873Z,113.70
2019-05-02T05:43:53.579Z,177.90
2019-05-02T05:46:21.365Z,94.53
2019-05-02T05:48:50.959Z,118.37
2019-05-02T05:51:20.790Z,102.60
2019-05-02T05:53:52.266Z,90.70
2019-05-02T05:56:21.585Z,93.87
2019-05-02T05:58:52.649Z,90.70
2019-05-02T06:01:26.151Z,83.13
2019-05-02T06:03:53.554Z,80.50
2019-05-02T06:06:24.486Z,82.00
2019-05-02T06:08:55.386Z,75.37
2019-05-02T06:11:25.222Z,77.47
2019-05-02T06:13:54.746Z,70.37
2019-05-02T06:16:24.248Z,74.50
2019-05-02T06:18:54.024Z,75.03
2019-05-02T06:21:23.557Z,68.13
2019-05-02T06:23:53.098Z,70.40
2019-05-02T06:26:22.652Z,72.70
2019-05-02T06:28:52.189Z,55.80
2019-05-02T06:31:21.678Z,65.47
2019-05-02T06:33:51.204Z,60.07
2019-05-02T06:36:20.765Z,72.30
2019-05-02T06:38:52.090Z,66.23
2019-05-02T06:41:22.314Z,58.77
2019-05-02T06:43:51.900Z,59.20
2019-05-02T06:46:27.029Z,60.20
2019-05-02T06:48:53.701Z,60.03
2019-05-02T06:51:23.293Z,67.87
2019-05-02T06:53:52.970Z,56.83
2019-05-02T06:56:22.675Z,60.17
2019-05-02T06:58:52.205Z,56.47
2019-05-02T07:01:22.945Z,55.03
2019-05-02T07:03:52.556Z,57.90
2019-05-02T07:06:22.343Z,55.17
2019-05-02T07:08:52.557Z,59.53
2019-05-02T07:11:22.329Z,57.57
2019-05-02T07:13:51.908Z,61.50
2019-05-02T07:16:37.545Z,53.10
2019-05-02T07:19:01.213Z,55.23
2019-05-02T07:21:30.840Z,53.50
2019-05-02T07:24:00.459Z,59.57
2019-05-02T07:26:30.038Z,58.13
2019-05-02T07:28:59.606Z,47.67
2019-05-02T07:31:29.183Z,51.80
2019-05-02T07:33:58.739Z,51.47
2019-05-02T07:36:31.177Z,55.33
2019-05-02T07:39:05.086Z,58.27
2019-05-02T07:41:31.112Z,57.17
2019-05-02T07:44:00.713Z,54.30
2019-05-02T07:46:30.228Z,62.10
2019-05-02T07:49:00.860Z,60.70
2019-05-02T07:51:30.465Z,62.93
2019-05-02T07:54:00.975Z,61.37
2019-05-02T07:56:30.930Z,57.57
2019-05-02T07:59:00.576Z,60.37
2019-05-02T08:01:30.328Z,59.10
2019-05-02T08:04:04.520Z,64.27
2019-05-02T08:06:35.443Z,60.43
2019-05-02T08:09:07.225Z,59.30
2019-05-02T08:11:37.140Z,62.73
2019-05-02T08:14:05.036Z,59.63
2019-05-02T08:16:34.657Z,57.30
2019-05-02T08:19:05.528Z,58.83
2019-05-02T08:21:35.585Z,68.00
2019-05-02T08:24:05.158Z,66.73
2019-05-02T08:26:45.144Z,67.43
2019-05-02T08:29:15.083Z,66.33
2019-05-02T08:31:44.618Z,68.50
2019-05-02T08:34:15.917Z,68.90
2019-05-02T08:36:46.406Z,61.70
2019-05-02T08:39:16.054Z,63.40
2019-05-02T08:41:45.633Z,61.00
2019-05-02T08:44:16.759Z,72.80
2019-05-02T08:46:51.540Z,64.80
2019-05-02T08:49:18.892Z,67.27
2019-05-02T08:51:49.207Z,61.87
2019-05-02T08:54:18.729Z,59.73
2019-05-02T08:56:53.212Z,59.20
2019-05-02T08:59:24.614Z,56.73
2019-05-02T09:01:51.545Z,59.60
2019-05-02T09:04:24.251Z,56.80
2019-05-02T09:06:53.188Z,57.83
2019-05-02T09:09:28.053Z,58.83
2019-05-02T09:12:04.810Z,57.37
2019-05-02T09:14:26.146Z,55.37
2019-05-02T09:17:00.077Z,54.60
2019-05-02T09:19:26.983Z,56.33
2019-05-02T09:21:56.652Z,57.70
2019-05-02T09:24:27.169Z,60.67
2019-05-02T09:26:56.726Z,56.60
2019-05-02T09:29:26.250Z,57.07
2019-05-02T09:31:55.973Z,56.40
2019-05-02T09:34:26.833Z,57.17
2019-05-02T09:36:56.505Z,62.23
2019-05-02T09:39:27.427Z,59.10
2019-05-02T09:41:57.269Z,62.27
2019-05-02T09:44:26.945Z,65.07
2019-05-02T09:46:57.171Z,62.10
2019-05-02T09:49:26.781Z,58.07
2019-05-02T09:51:59.487Z,59.33
2019-05-02T09:54:27.586Z,59.40
2019-05-02T09:56:58.074Z,59.77
2019-05-02T09:59:30.396Z,54.93
2019-05-02T10:02:01.995Z,54.90
2019-05-02T10:04:32.595Z,56.23
2019-05-02T10:07:02.623Z,54.87
2019-05-02T10:09:32.484Z,54.17
2019-05-02T10:12:02.228Z,62.90
2019-05-02T10:14:33.091Z,60.03
2019-05-02T10:17:06.948Z,59.43
2019-05-02T10:19:34.050Z,64.40
2019-05-02T10:22:03.727Z,68.10
2019-05-02T10:24:33.420Z,62.37
2019-05-02T10:27:06.490Z,66.17
2019-05-02T10:29:34.236Z,63.27
2019-05-02T10:32:07.526Z,60.83
2019-05-02T10:34:35.354Z,55.53
2019-05-02T10:37:05.017Z,59.57
2019-05-02T10:39:37.861Z,58.77
2019-05-02T10:42:06.068Z,68.77
2019-05-02T10:44:36.593Z,59.20
2019-05-02T10:47:06.423Z,60.30
2019-05-02T10:49:53.953Z,57.23
2019-05-02T10:52:29.777Z,48.30
2019-05-02T10:54:55.831Z,57.47
2019-05-02T10:57:25.473Z,54.27
2019-05-02T10:59:56.220Z,55.30
2019-05-02T11:02:27.945Z,50.83
2019-05-02T11:04:59.225Z,52.80
2019-05-02T11:07:28.792Z,57.83
2019-05-02T11:10:03.256Z,56.83
2019-05-02T11:12:43.416Z,56.00
2019-05-02T11:15:23.049Z,45.80
2019-05-02T11:17:52.986Z,52.03
2019-05-02T11:20:23.723Z,43.70
2019-05-02T11:22:54.623Z,52.70
2019-05-02T11:25:24.253Z,49.50
2019-05-02T11:27:57.421Z,51.40
2019-05-02T11:30:26.709Z,55.77
2019-05-02T11:32:56.320Z,53.60
2019-05-02T11:35:25.921Z,55.27
2019-05-02T11:37:55.536Z,54.27
2019-05-02T11:40:25.137Z,46.20
2019-05-02T11:42:57.337Z,53.93
2019-05-02T11:45:25.904Z,50.77
2019-05-02T11:47:56.109Z,52.37
2019-05-02T11:50:31.176Z,50.13
2019-05-02T11:52:58.246Z,48.17
2019-05-02T11:55:29.139Z,53.57
2019-05-02T11:58:00.987Z,52.17
2019-05-02T12:00:32.346Z,43.57
2019-05-02T12:03:12.539Z,45.40
2019-05-02T12:05:42.815Z,46.43
2019-05-02T12:08:12.444Z,47.87
2019-05-02T12:10:42.403Z,52.40
2019-05-02T12:13:15.955Z,53.50
2019-05-02T12:15:44.357Z,50.10
2019-05-02T12:18:14.145Z,59.37
2019-05-02T12:20:43.714Z,45.83
2019-05-02T12:23:13.317Z,49.40
2019-05-02T12:25:42.965Z,51.33
2019-05-02T12:28:12.472Z,48.03
2019-05-02T12:30:42.150Z,50.23
2019-05-02T12:33:13.076Z,48.63
2019-05-02T12:35:43.391Z,48.47
2019-05-02T12:38:12.954Z,46.73
2019-05-02T12:40:43.737Z,49.23
2019-05-02T12:43:13.241Z,50.90
2019-05-02T12:45:42.824Z,44.73
2019-05-02T12:48:13.033Z,46.33
2019-05-02T12:50:42.786Z,53.90
2019-05-02T12:53:12.782Z,45.37
2019-05-02T12:55:42.413Z,48.17
2019-05-02T12:58:12.615Z,49.53
2019-05-02T13:00:43.099Z,46.07
2019-05-02T13:03:31.716Z,52.53
2019-05-02T13:06:09.233Z,48.53
2019-05-02T13:08:48.229Z,54.60
2019-05-02T13:11:32.163Z,52.30
2019-05-02T13:14:02.287Z,55.97
2019-05-02T13:16:33.482Z,55.13
2019-05-02T13:19:06.151Z,50.40
2019-05-02T13:21:50.107Z,50.27
2019-05-02T13:24:19.360Z,54.53
2019-05-02T13:26:52.019Z,59.33
2019-05-02T13:29:20.182Z,77.50
2019-05-02T13:31:54.514Z,74.80
2019-05-02T13:34:32.055Z,82.67
2019-05-02T13:37:03.046Z,97.07
2019-05-02T13:39:34.526Z,98.93
2019-05-02T13:42:04.578Z,102.10
2019-05-02T13:44:38.481Z,97.63
2019-05-02T13:47:12.157Z,108.17
2019-05-02T13:49:53.684Z,111.17
2019-05-02T13:52:12.715Z,108.10
2019-05-02T13:54:42.682Z,113.00
2019-05-02T13:57:13.357Z,117.97
2019-05-02T13:59:42.872Z,115.23
2019-05-02T14:02:33.330Z,116.17
2019-05-02T14:05:03.219Z,122.40
2019-05-02T14:07:32.791Z,122.70
2019-05-02T14:10:05.137Z,117.13
2019-05-02T14:12:45.298Z,129.40
2019-05-02T14:15:17.158Z,118.50
2019-05-02T14:17:46.872Z,117.70
2019-05-02T14:20:22.424Z,115.87
2019-05-02T14:22:52.735Z,121.43
2019-05-02T14:25:22.808Z,114.93
2019-05-02T14:27:55.646Z,119.57
2019-05-02T14:30:36.243Z,116.03
2019-05-02T14:33:02.231Z,118.03
2019-05-02T14:35:36.563Z,123.30
2019-05-02T14:38:15.847Z,120.33
2019-05-02T14:40:52.102Z,124.10
2019-05-02T14:43:46.173Z,116.37
2019-05-02T14:46:12.557Z,121.40
2019-05-02T14:48:45.243Z,117.30
2019-05-02T14:51:16.686Z,111.47
2019-05-02T14:53:47.600Z,115.03
2019-05-02T14:56:28.067Z,120.77
2019-05-02T14:58:57.792Z,112.63
2019-05-02T15:01:27.712Z,113.33
2019-05-02T15:03:58.166Z,115.10
2019-05-02T15:06:32.971Z,128.50
2019-05-02T15:09:02.257Z,119.80
2019-05-02T15:11:34.784Z,111.63
2019-05-02T15:14:03.150Z,89.73
2019-05-02T15:16:40.349Z,97.07
2019-05-02T15:19:04.135Z,88.63
2019-05-02T15:21:46.940Z,90.53
2019-05-02T15:24:14.095Z,85.60
2019-05-02T15:26:43.630Z,80.07
2019-05-02T15:29:19.820Z,80.37
2019-05-02T15:32:07.063Z,76.97
